sensor_id;sensor_type;location;lat;lon;timestamp;P1;durP1;ratioP1;P2;durP2;ratioP2
37205;SDS011;23099;42.636;23.198;2023-11-21T00:00:41;2.75;;;1.00;;
37205;SDS011;23099;42.636;23.198;2023-11-21T00:03:09;1.15;;;0.65;;
37205;SDS011;23099;42.636;23.198;2023-11-21T00:05:36;2.92;;;0.95;;
37205;SDS011;23099;42.636;23.198;2023-11-21T00:08:03;2.88;;;0.43;;
37205;SDS011;23099;42.636;23.198;2023-11-21T00:10:30;2.28;;;0.73;;
37205;SDS011;23099;42.636;23.198;2023-11-21T00:12:57;2.70;;;1.38;;
37205;SDS011;23099;42.636;23.198;2023-11-21T00:15:23;2.15;;;0.77;;
37205;SDS011;23099;42.636;23.198;2023-11-21T00:17:51;3.45;;;1.70;;
37205;SDS011;23099;42.636;23.198;2023-11-21T00:20:20;1.25;;;0.68;;
37205;SDS011;23099;42.636;23.198;2023-11-21T00:22:47;2.25;;;1.13;;
37205;SDS011;23099;42.636;23.198;2023-11-21T00:25:14;4.57;;;0.60;;
37205;SDS011;23099;42.636;23.198;2023-11-21T00:27:42;4.35;;;2.40;;
37205;SDS011;23099;42.636;23.198;2023-11-21T00:30:09;3.05;;;2.15;;
37205;SDS011;23099;42.636;23.198;2023-11-21T00:32:37;0.85;;;0.43;;
37205;SDS011;23099;42.636;23.198;2023-11-21T00:35:05;1.52;;;0.73;;
37205;SDS011;23099;42.636;23.198;2023-11-21T00:37:33;9.18;;;1.98;;
37205;SDS011;23099;42.636;23.198;2023-11-21T00:40:00;2.05;;;0.40;;
37205;SDS011;23099;42.636;23.198;2023-11-21T00:42:30;0.38;;;0.22;;
37205;SDS011;23099;42.636;23.198;2023-11-21T00:44:57;0.25;;;0.20;;
37205;SDS011;23099;42.636;23.198;2023-11-21T00:47:23;0.55;;;0.45;;
37205;SDS011;23099;42.636;23.198;2023-11-21T00:49:50;0.77;;;0.47;;
37205;SDS011;23099;42.636;23.198;2023-11-21T00:52:17;1.05;;;0.40;;
37205;SDS011;23099;42.636;23.198;2023-11-21T00:54:45;1.73;;;0.40;;
37205;SDS011;23099;42.636;23.198;2023-11-21T00:57:13;6.20;;;0.57;;
37205;SDS011;23099;42.636;23.198;2023-11-21T00:59:39;8.32;;;2.53;;
37205;SDS011;23099;42.636;23.198;2023-11-21T01:02:06;4.65;;;1.95;;
37205;SDS011;23099;42.636;23.198;2023-11-21T01:04:35;2.45;;;1.42;;
37205;SDS011;23099;42.636;23.198;2023-11-21T01:07:02;2.58;;;1.05;;
37205;SDS011;23099;42.636;23.198;2023-11-21T01:09:30;0.30;;;0.20;;
37205;SDS011;23099;42.636;23.198;2023-11-21T01:11:58;1.40;;;0.82;;
37205;SDS011;23099;42.636;23.198;2023-11-21T01:14:26;0.35;;;0.20;;
37205;SDS011;23099;42.636;23.198;2023-11-21T01:16:52;1.65;;;0.40;;
37205;SDS011;23099;42.636;23.198;2023-11-21T01:19:19;1.63;;;0.43;;
37205;SDS011;23099;42.636;23.198;2023-11-21T01:21:46;1.50;;;0.30;;
37205;SDS011;23099;42.636;23.198;2023-11-21T01:24:13;0.50;;;0.32;;
37205;SDS011;23099;42.636;23.198;2023-11-21T01:26:39;2.42;;;1.33;;
37205;SDS011;23099;42.636;23.198;2023-11-21T01:29:07;4.32;;;1.48;;
37205;SDS011;23099;42.636;23.198;2023-11-21T01:31:34;1.02;;;0.80;;
37205;SDS011;23099;42.636;23.198;2023-11-21T01:34:01;2.10;;;1.05;;
37205;SDS011;23099;42.636;23.198;2023-11-21T01:36:29;2.55;;;1.00;;
37205;SDS011;23099;42.636;23.198;2023-11-21T01:38:58;5.63;;;1.80;;
37205;SDS011;23099;42.636;23.198;2023-11-21T01:41:25;2.85;;;0.98;;
37205;SDS011;23099;42.636;23.198;2023-11-21T01:43:53;5.45;;;1.27;;
37205;SDS011;23099;42.636;23.198;2023-11-21T01:46:21;0.73;;;0.55;;
37205;SDS011;23099;42.636;23.198;2023-11-21T01:48:49;4.97;;;0.68;;
37205;SDS011;23099;42.636;23.198;2023-11-21T01:51:16;1.35;;;0.50;;
37205;SDS011;23099;42.636;23.198;2023-11-21T01:53:43;0.93;;;0.60;;
37205;SDS011;23099;42.636;23.198;2023-11-21T01:56:11;1.23;;;0.82;;
37205;SDS011;23099;42.636;23.198;2023-11-21T01:58:39;2.92;;;0.60;;
37205;SDS011;23099;42.636;23.198;2023-11-21T02:01:06;0.63;;;0.30;;
37205;SDS011;23099;42.636;23.198;2023-11-21T02:03:34;0.40;;;0.30;;
37205;SDS011;23099;42.636;23.198;2023-11-21T02:06:00;0.70;;;0.40;;
37205;SDS011;23099;42.636;23.198;2023-11-21T02:08:27;3.05;;;0.88;;
37205;SDS011;23099;42.636;23.198;2023-11-21T02:10:54;0.80;;;0.55;;
37205;SDS011;23099;42.636;23.198;2023-11-21T02:13:22;0.47;;;0.40;;
37205;SDS011;23099;42.636;23.198;2023-11-21T02:15:49;0.55;;;0.40;;
37205;SDS011;23099;42.636;23.198;2023-11-21T02:18:17;0.25;;;0.22;;
37205;SDS011;23099;42.636;23.198;2023-11-21T02:20:45;1.45;;;0.28;;
37205;SDS011;23099;42.636;23.198;2023-11-21T02:23:13;0.10;;;0.10;;
37205;SDS011;23099;42.636;23.198;2023-11-21T02:25:41;0.40;;;0.20;;
37205;SDS011;23099;42.636;23.198;2023-11-21T02:28:08;0.40;;;0.28;;
37205;SDS011;23099;42.636;23.198;2023-11-21T02:30:37;0.25;;;0.15;;
37205;SDS011;23099;42.636;23.198;2023-11-21T02:33:04;0.60;;;0.40;;
37205;SDS011;23099;42.636;23.198;2023-11-21T02:35:32;0.38;;;0.20;;
37205;SDS011;23099;42.636;23.198;2023-11-21T02:37:59;0.10;;;0.10;;
37205;SDS011;23099;42.636;23.198;2023-11-21T02:40:28;1.15;;;0.50;;
37205;SDS011;23099;42.636;23.198;2023-11-21T02:42:54;0.73;;;0.30;;
37205;SDS011;23099;42.636;23.198;2023-11-21T02:45:24;0.22;;;0.20;;
37205;SDS011;23099;42.636;23.198;2023-11-21T02:47:51;0.30;;;0.20;;
37205;SDS011;23099;42.636;23.198;2023-11-21T02:50:22;1.13;;;0.50;;
37205;SDS011;23099;42.636;23.198;2023-11-21T02:52:48;0.50;;;0.25;;
37205;SDS011;23099;42.636;23.198;2023-11-21T02:55:15;0.77;;;0.40;;
37205;SDS011;23099;42.636;23.198;2023-11-21T02:57:43;0.20;;;0.15;;
37205;SDS011;23099;42.636;23.198;2023-11-21T03:00:10;0.25;;;0.22;;
37205;SDS011;23099;42.636;23.198;2023-11-21T03:02:38;4.00;;;0.55;;
37205;SDS011;23099;42.636;23.198;2023-11-21T03:05:05;0.30;;;0.20;;
37205;SDS011;23099;42.636;23.198;2023-11-21T03:07:34;0.30;;;0.20;;
37205;SDS011;23099;42.636;23.198;2023-11-21T03:10:00;0.77;;;0.30;;
37205;SDS011;23099;42.636;23.198;2023-11-21T03:12:27;0.27;;;0.20;;
37205;SDS011;23099;42.636;23.198;2023-11-21T03:14:55;0.50;;;0.43;;
37205;SDS011;23099;42.636;23.198;2023-11-21T03:17:22;0.20;;;0.15;;
37205;SDS011;23099;42.636;23.198;2023-11-21T03:19:49;0.57;;;0.30;;
37205;SDS011;23099;42.636;23.198;2023-11-21T03:22:17;1.17;;;0.63;;
37205;SDS011;23099;42.636;23.198;2023-11-21T03:24:44;3.33;;;1.25;;
37205;SDS011;23099;42.636;23.198;2023-11-21T03:27:11;0.80;;;0.30;;
37205;SDS011;23099;42.636;23.198;2023-11-21T03:29:38;1.10;;;0.40;;
37205;SDS011;23099;42.636;23.198;2023-11-21T03:32:07;0.25;;;0.20;;
37205;SDS011;23099;42.636;23.198;2023-11-21T03:34:33;0.20;;;0.10;;
37205;SDS011;23099;42.636;23.198;2023-11-21T03:37:00;2.03;;;0.52;;
37205;SDS011;23099;42.636;23.198;2023-11-21T03:39:27;1.85;;;0.73;;
37205;SDS011;23099;42.636;23.198;2023-11-21T03:41:54;3.03;;;2.15;;
37205;SDS011;23099;42.636;23.198;2023-11-21T03:44:21;2.40;;;0.30;;
37205;SDS011;23099;42.636;23.198;2023-11-21T03:46:47;1.95;;;0.75;;
37205;SDS011;23099;42.636;23.198;2023-11-21T03:49:15;0.20;;;0.10;;
37205;SDS011;23099;42.636;23.198;2023-11-21T03:51:42;1.08;;;0.50;;
37205;SDS011;23099;42.636;23.198;2023-11-21T03:54:09;0.60;;;0.38;;
37205;SDS011;23099;42.636;23.198;2023-11-21T03:56:36;0.70;;;0.32;;
37205;SDS011;23099;42.636;23.198;2023-11-21T03:59:02;2.30;;;0.47;;
37205;SDS011;23099;42.636;23.198;2023-11-21T04:01:29;0.38;;;0.22;;
37205;SDS011;23099;42.636;23.198;2023-11-21T04:03:56;0.20;;;0.20;;
37205;SDS011;23099;42.636;23.198;2023-11-21T04:06:24;1.65;;;0.57;;
37205;SDS011;23099;42.636;23.198;2023-11-21T04:08:51;0.52;;;0.38;;
37205;SDS011;23099;42.636;23.198;2023-11-21T04:11:17;3.42;;;0.68;;
37205;SDS011;23099;42.636;23.198;2023-11-21T04:13:44;0.55;;;0.30;;
37205;SDS011;23099;42.636;23.198;2023-11-21T04:16:12;1.40;;;0.63;;
37205;SDS011;23099;42.636;23.198;2023-11-21T04:18:39;2.10;;;0.52;;
37205;SDS011;23099;42.636;23.198;2023-11-21T04:21:06;5.68;;;0.77;;
37205;SDS011;23099;42.636;23.198;2023-11-21T04:23:34;11.13;;;4.13;;
37205;SDS011;23099;42.636;23.198;2023-11-21T04:26:02;7.65;;;6.43;;
37205;SDS011;23099;42.636;23.198;2023-11-21T04:28:28;7.68;;;4.22;;
37205;SDS011;23099;42.636;23.198;2023-11-21T04:30:55;7.93;;;3.03;;
37205;SDS011;23099;42.636;23.198;2023-11-21T04:33:22;0.90;;;0.50;;
37205;SDS011;23099;42.636;23.198;2023-11-21T04:35:49;0.88;;;0.65;;
37205;SDS011;23099;42.636;23.198;2023-11-21T04:38:15;1.25;;;0.50;;
37205;SDS011;23099;42.636;23.198;2023-11-21T04:40:43;9.10;;;1.13;;
37205;SDS011;23099;42.636;23.198;2023-11-21T04:43:09;0.50;;;0.40;;
37205;SDS011;23099;42.636;23.198;2023-11-21T04:45:36;2.00;;;1.02;;
37205;SDS011;23099;42.636;23.198;2023-11-21T04:48:03;1.92;;;0.63;;
37205;SDS011;23099;42.636;23.198;2023-11-21T04:50:31;2.38;;;1.70;;
37205;SDS011;23099;42.636;23.198;2023-11-21T04:52:58;5.20;;;2.95;;
37205;SDS011;23099;42.636;23.198;2023-11-21T04:55:25;4.13;;;2.78;;
37205;SDS011;23099;42.636;23.198;2023-11-21T04:57:54;6.72;;;4.00;;
37205;SDS011;23099;42.636;23.198;2023-11-21T05:00:21;5.57;;;3.60;;
37205;SDS011;23099;42.636;23.198;2023-11-21T05:02:47;7.15;;;3.50;;
37205;SDS011;23099;42.636;23.198;2023-11-21T05:05:14;3.28;;;1.67;;
37205;SDS011;23099;42.636;23.198;2023-11-21T05:07:41;6.00;;;3.63;;
37205;SDS011;23099;42.636;23.198;2023-11-21T05:10:08;11.68;;;3.28;;
37205;SDS011;23099;42.636;23.198;2023-11-21T05:12:37;2.37;;;1.40;;
37205;SDS011;23099;42.636;23.198;2023-11-21T05:15:05;2.22;;;1.10;;
37205;SDS011;23099;42.636;23.198;2023-11-21T05:17:35;0.68;;;0.32;;
37205;SDS011;23099;42.636;23.198;2023-11-21T05:20:02;3.78;;;1.67;;
37205;SDS011;23099;42.636;23.198;2023-11-21T05:22:33;0.93;;;0.40;;
37205;SDS011;23099;42.636;23.198;2023-11-21T05:25:00;2.30;;;0.95;;
37205;SDS011;23099;42.636;23.198;2023-11-21T05:27:28;0.85;;;0.60;;
37205;SDS011;23099;42.636;23.198;2023-11-21T05:29:55;4.72;;;1.23;;
37205;SDS011;23099;42.636;23.198;2023-11-21T05:32:23;3.05;;;1.83;;
37205;SDS011;23099;42.636;23.198;2023-11-21T05:34:50;1.50;;;0.93;;
37205;SDS011;23099;42.636;23.198;2023-11-21T05:37:17;4.50;;;1.45;;
37205;SDS011;23099;42.636;23.198;2023-11-21T05:39:44;1.17;;;0.80;;
37205;SDS011;23099;42.636;23.198;2023-11-21T05:42:12;1.23;;;0.90;;
37205;SDS011;23099;42.636;23.198;2023-11-21T05:44:40;1.92;;;0.95;;
37205;SDS011;23099;42.636;23.198;2023-11-21T05:47:08;0.55;;;0.55;;
37205;SDS011;23099;42.636;23.198;2023-11-21T05:49:36;2.40;;;1.48;;
37205;SDS011;23099;42.636;23.198;2023-11-21T05:52:03;0.70;;;0.40;;
37205;SDS011;23099;42.636;23.198;2023-11-21T05:54:30;1.73;;;0.45;;
37205;SDS011;23099;42.636;23.198;2023-11-21T05:56:57;2.00;;;0.88;;
37205;SDS011;23099;42.636;23.198;2023-11-21T05:59:24;2.30;;;0.82;;
37205;SDS011;23099;42.636;23.198;2023-11-21T06:01:50;0.50;;;0.30;;
37205;SDS011;23099;42.636;23.198;2023-11-21T06:04:18;3.35;;;1.13;;
37205;SDS011;23099;42.636;23.198;2023-11-21T06:06:50;1.77;;;0.90;;
37205;SDS011;23099;42.636;23.198;2023-11-21T06:09:17;1.50;;;0.50;;
37205;SDS011;23099;42.636;23.198;2023-11-21T06:11:44;3.53;;;1.05;;
37205;SDS011;23099;42.636;23.198;2023-11-21T06:14:11;3.58;;;1.25;;
37205;SDS011;23099;42.636;23.198;2023-11-21T06:16:38;1.23;;;0.73;;
37205;SDS011;23099;42.636;23.198;2023-11-21T06:19:05;2.00;;;0.52;;
37205;SDS011;23099;42.636;23.198;2023-11-21T06:21:31;1.83;;;0.80;;
37205;SDS011;23099;42.636;23.198;2023-11-21T06:24:00;2.70;;;1.13;;
37205;SDS011;23099;42.636;23.198;2023-11-21T06:26:27;6.97;;;2.33;;
37205;SDS011;23099;42.636;23.198;2023-11-21T06:28:53;6.20;;;3.20;;
37205;SDS011;23099;42.636;23.198;2023-11-21T06:31:22;8.38;;;5.10;;
37205;SDS011;23099;42.636;23.198;2023-11-21T06:33:48;16.15;;;8.15;;
37205;SDS011;23099;42.636;23.198;2023-11-21T06:36:17;11.98;;;6.43;;
37205;SDS011;23099;42.636;23.198;2023-11-21T06:38:43;4.23;;;2.83;;
37205;SDS011;23099;42.636;23.198;2023-11-21T06:41:12;1.95;;;1.25;;
37205;SDS011;23099;42.636;23.198;2023-11-21T06:43:40;2.47;;;1.52;;
37205;SDS011;23099;42.636;23.198;2023-11-21T06:46:10;1.88;;;1.13;;
37205;SDS011;23099;42.636;23.198;2023-11-21T06:48:38;1.58;;;0.90;;
37205;SDS011;23099;42.636;23.198;2023-11-21T06:51:05;1.27;;;0.65;;
37205;SDS011;23099;42.636;23.198;2023-11-21T06:53:32;0.80;;;0.45;;
37205;SDS011;23099;42.636;23.198;2023-11-21T06:55:59;2.58;;;1.10;;
37205;SDS011;23099;42.636;23.198;2023-11-21T06:58:27;4.50;;;2.90;;
37205;SDS011;23099;42.636;23.198;2023-11-21T07:00:53;11.70;;;2.67;;
37205;SDS011;23099;42.636;23.198;2023-11-21T07:03:20;6.15;;;2.88;;
37205;SDS011;23099;42.636;23.198;2023-11-21T07:05:47;6.78;;;2.40;;
37205;SDS011;23099;42.636;23.198;2023-11-21T07:08:13;15.52;;;4.32;;
37205;SDS011;23099;42.636;23.198;2023-11-21T07:10:40;9.43;;;4.55;;
37205;SDS011;23099;42.636;23.198;2023-11-21T07:13:07;9.50;;;2.25;;
37205;SDS011;23099;42.636;23.198;2023-11-21T07:15:39;5.50;;;2.85;;
37205;SDS011;23099;42.636;23.198;2023-11-21T07:18:05;7.20;;;3.53;;
37205;SDS011;23099;42.636;23.198;2023-11-21T07:20:33;11.60;;;5.47;;
37205;SDS011;23099;42.636;23.198;2023-11-21T07:23:01;9.77;;;6.15;;
37205;SDS011;23099;42.636;23.198;2023-11-21T07:27:55;10.77;;;2.65;;
37205;SDS011;23099;42.636;23.198;2023-11-21T07:30:22;9.63;;;4.05;;
37205;SDS011;23099;42.636;23.198;2023-11-21T07:32:50;9.25;;;3.08;;
37205;SDS011;23099;42.636;23.198;2023-11-21T07:35:17;2.13;;;1.50;;
37205;SDS011;23099;42.636;23.198;2023-11-21T07:37:43;2.15;;;1.73;;
37205;SDS011;23099;42.636;23.198;2023-11-21T07:40:12;2.60;;;0.70;;
37205;SDS011;23099;42.636;23.198;2023-11-21T07:42:38;1.92;;;1.23;;
37205;SDS011;23099;42.636;23.198;2023-11-21T07:45:08;3.85;;;1.75;;
37205;SDS011;23099;42.636;23.198;2023-11-21T07:47:35;3.50;;;1.90;;
37205;SDS011;23099;42.636;23.198;2023-11-21T07:50:03;5.63;;;1.13;;
37205;SDS011;23099;42.636;23.198;2023-11-21T07:52:32;3.30;;;1.27;;
37205;SDS011;23099;42.636;23.198;2023-11-21T07:54:59;3.55;;;1.95;;
37205;SDS011;23099;42.636;23.198;2023-11-21T07:57:26;6.50;;;2.07;;
37205;SDS011;23099;42.636;23.198;2023-11-21T07:59:53;6.90;;;2.38;;
37205;SDS011;23099;42.636;23.198;2023-11-21T08:02:20;8.65;;;2.08;;
37205;SDS011;23099;42.636;23.198;2023-11-21T08:04:47;6.80;;;3.47;;
37205;SDS011;23099;42.636;23.198;2023-11-21T08:07:17;4.80;;;1.67;;
37205;SDS011;23099;42.636;23.198;2023-11-21T08:09:44;3.45;;;1.52;;
37205;SDS011;23099;42.636;23.198;2023-11-21T08:12:11;7.10;;;2.50;;
37205;SDS011;23099;42.636;23.198;2023-11-21T08:17:06;6.00;;;3.17;;
37205;SDS011;23099;42.636;23.198;2023-11-21T08:19:35;8.38;;;2.35;;
37205;SDS011;23099;42.636;23.198;2023-11-21T08:22:02;0.70;;;0.40;;
37205;SDS011;23099;42.636;23.198;2023-11-21T08:24:30;1.77;;;0.82;;
37205;SDS011;23099;42.636;23.198;2023-11-21T08:26:57;2.72;;;0.57;;
37205;SDS011;23099;42.636;23.198;2023-11-21T08:29:23;2.05;;;0.55;;
37205;SDS011;23099;42.636;23.198;2023-11-21T08:31:50;1.65;;;0.80;;
37205;SDS011;23099;42.636;23.198;2023-11-21T08:34:17;1.23;;;0.52;;
37205;SDS011;23099;42.636;23.198;2023-11-21T08:36:43;2.20;;;0.90;;
37205;SDS011;23099;42.636;23.198;2023-11-21T08:39:10;2.58;;;1.73;;
37205;SDS011;23099;42.636;23.198;2023-11-21T08:41:39;1.92;;;0.73;;
37205;SDS011;23099;42.636;23.198;2023-11-21T08:44:06;2.55;;;1.00;;
37205;SDS011;23099;42.636;23.198;2023-11-21T08:46:33;3.80;;;1.17;;
37205;SDS011;23099;42.636;23.198;2023-11-21T08:49:03;3.25;;;1.40;;
37205;SDS011;23099;42.636;23.198;2023-11-21T08:51:31;2.92;;;0.98;;
37205;SDS011;23099;42.636;23.198;2023-11-21T08:53:57;2.30;;;1.17;;
37205;SDS011;23099;42.636;23.198;2023-11-21T08:56:26;3.03;;;1.85;;
37205;SDS011;23099;42.636;23.198;2023-11-21T08:58:54;2.33;;;0.80;;
37205;SDS011;23099;42.636;23.198;2023-11-21T09:01:22;3.17;;;1.25;;
37205;SDS011;23099;42.636;23.198;2023-11-21T09:03:50;2.92;;;0.82;;
37205;SDS011;23099;42.636;23.198;2023-11-21T09:06:16;2.13;;;0.85;;
37205;SDS011;23099;42.636;23.198;2023-11-21T09:08:43;2.60;;;1.15;;
37205;SDS011;23099;42.636;23.198;2023-11-21T09:11:10;4.20;;;1.45;;
37205;SDS011;23099;42.636;23.198;2023-11-21T09:13:36;2.60;;;1.23;;
37205;SDS011;23099;42.636;23.198;2023-11-21T09:16:05;5.45;;;1.73;;
37205;SDS011;23099;42.636;23.198;2023-11-21T09:18:32;3.00;;;1.67;;
37205;SDS011;23099;42.636;23.198;2023-11-21T09:20:59;5.07;;;1.88;;
37205;SDS011;23099;42.636;23.198;2023-11-21T09:23:26;2.47;;;0.80;;
37205;SDS011;23099;42.636;23.198;2023-11-21T09:25:52;4.20;;;1.30;;
37205;SDS011;23099;42.636;23.198;2023-11-21T09:28:22;1.70;;;0.50;;
37205;SDS011;23099;42.636;23.198;2023-11-21T09:30:48;2.40;;;1.02;;
37205;SDS011;23099;42.636;23.198;2023-11-21T09:33:16;3.88;;;0.73;;
37205;SDS011;23099;42.636;23.198;2023-11-21T09:35:43;6.55;;;2.25;;
37205;SDS011;23099;42.636;23.198;2023-11-21T09:38:10;2.10;;;0.77;;
37205;SDS011;23099;42.636;23.198;2023-11-21T09:40:39;2.35;;;1.08;;
37205;SDS011;23099;42.636;23.198;2023-11-21T09:45:34;1.77;;;0.70;;
37205;SDS011;23099;42.636;23.198;2023-11-21T09:48:02;3.42;;;0.57;;
37205;SDS011;23099;42.636;23.198;2023-11-21T09:50:30;2.00;;;0.82;;
37205;SDS011;23099;42.636;23.198;2023-11-21T09:53:02;3.53;;;1.17;;
37205;SDS011;23099;42.636;23.198;2023-11-21T09:55:36;5.15;;;1.17;;
37205;SDS011;23099;42.636;23.198;2023-11-21T09:58:05;4.75;;;1.42;;
37205;SDS011;23099;42.636;23.198;2023-11-21T10:00:33;5.80;;;1.80;;
37205;SDS011;23099;42.636;23.198;2023-11-21T10:03:00;4.03;;;1.55;;
37205;SDS011;23099;42.636;23.198;2023-11-21T10:05:27;0.50;;;0.10;;
37205;SDS011;23099;42.636;23.198;2023-11-21T10:07:59;1.30;;;0.10;;
37205;SDS011;23099;42.636;23.198;2023-11-21T10:10:26;0.80;;;0.10;;
37205;SDS011;23099;42.636;23.198;2023-11-21T10:12:54;0.57;;;0.30;;
37205;SDS011;23099;42.636;23.198;2023-11-21T10:15:23;0.90;;;0.10;;
37205;SDS011;23099;42.636;23.198;2023-11-21T10:20:18;0.10;;;0.10;;
37205;SDS011;23099;42.636;23.198;2023-11-21T10:22:47;0.30;;;0.10;;
37205;SDS011;23099;42.636;23.198;2023-11-21T10:25:14;0.00;;;0.00;;
37205;SDS011;23099;42.636;23.198;2023-11-21T10:27:41;0.20;;;0.10;;
37205;SDS011;23099;42.636;23.198;2023-11-21T10:30:09;0.10;;;0.00;;
37205;SDS011;23099;42.636;23.198;2023-11-21T10:32:37;0.43;;;0.10;;
37205;SDS011;23099;42.636;23.198;2023-11-21T10:37:35;0.75;;;0.10;;
37205;SDS011;23099;42.636;23.198;2023-11-21T10:40:06;0.10;;;0.10;;
37205;SDS011;23099;42.636;23.198;2023-11-21T10:42:34;0.20;;;0.10;;
37205;SDS011;23099;42.636;23.198;2023-11-21T10:45:01;0.30;;;0.10;;
37205;SDS011;23099;42.636;23.198;2023-11-21T10:47:30;0.17;;;0.00;;
37205;SDS011;23099;42.636;23.198;2023-11-21T10:49:57;0.15;;;0.10;;
37205;SDS011;23099;42.636;23.198;2023-11-21T10:52:27;0.40;;;0.10;;
37205;SDS011;23099;42.636;23.198;2023-11-21T10:54:54;0.10;;;0.10;;
37205;SDS011;23099;42.636;23.198;2023-11-21T10:57:22;0.20;;;0.10;;
37205;SDS011;23099;42.636;23.198;2023-11-21T10:59:52;0.10;;;0.10;;
37205;SDS011;23099;42.636;23.198;2023-11-21T11:02:22;0.20;;;0.10;;
37205;SDS011;23099;42.636;23.198;2023-11-21T11:04:53;0.38;;;0.15;;
37205;SDS011;23099;42.636;23.198;2023-11-21T11:07:21;0.40;;;0.38;;
37205;SDS011;23099;42.636;23.198;2023-11-21T11:09:52;1.38;;;0.30;;
37205;SDS011;23099;42.636;23.198;2023-11-21T11:12:19;0.38;;;0.20;;
37205;SDS011;23099;42.636;23.198;2023-11-21T11:14:48;0.40;;;0.20;;
37205;SDS011;23099;42.636;23.198;2023-11-21T11:17:15;1.00;;;0.20;;
37205;SDS011;23099;42.636;23.198;2023-11-21T11:19:45;0.22;;;0.10;;
37205;SDS011;23099;42.636;23.198;2023-11-21T11:22:16;0.30;;;0.10;;
37205;SDS011;23099;42.636;23.198;2023-11-21T11:24:59;0.40;;;0.20;;
37205;SDS011;23099;42.636;23.198;2023-11-21T11:27:51;0.63;;;0.10;;
37205;SDS011;23099;42.636;23.198;2023-11-21T11:30:26;0.13;;;0.00;;
37205;SDS011;23099;42.636;23.198;2023-11-21T11:33:06;0.10;;;0.03;;
37205;SDS011;23099;42.636;23.198;2023-11-21T11:35:38;0.10;;;0.00;;
37205;SDS011;23099;42.636;23.198;2023-11-21T11:38:13;0.75;;;0.20;;
37205;SDS011;23099;42.636;23.198;2023-11-21T11:40:40;0.08;;;0.00;;
37205;SDS011;23099;42.636;23.198;2023-11-21T11:43:09;0.47;;;0.23;;
37205;SDS011;23099;42.636;23.198;2023-11-21T11:45:37;0.10;;;0.10;;
37205;SDS011;23099;42.636;23.198;2023-11-21T11:48:06;0.75;;;0.20;;
37205;SDS011;23099;42.636;23.198;2023-11-21T11:50:33;0.63;;;0.10;;
37205;SDS011;23099;42.636;23.198;2023-11-21T11:53:11;0.98;;;0.10;;
37205;SDS011;23099;42.636;23.198;2023-11-21T11:55:39;0.98;;;0.30;;
37205;SDS011;23099;42.636;23.198;2023-11-21T11:58:06;0.20;;;0.10;;
37205;SDS011;23099;42.636;23.198;2023-11-21T12:00:35;0.38;;;0.10;;
37205;SDS011;23099;42.636;23.198;2023-11-21T12:03:06;0.52;;;0.13;;
37205;SDS011;23099;42.636;23.198;2023-11-21T12:05:35;0.03;;;0.03;;
37205;SDS011;23099;42.636;23.198;2023-11-21T12:08:04;0.50;;;0.20;;
37205;SDS011;23099;42.636;23.198;2023-11-21T12:10:32;0.10;;;0.00;;
37205;SDS011;23099;42.636;23.198;2023-11-21T12:13:00;0.20;;;0.10;;
37205;SDS011;23099;42.636;23.198;2023-11-21T12:15:28;0.25;;;0.10;;
37205;SDS011;23099;42.636;23.198;2023-11-21T12:20:24;0.05;;;0.00;;
37205;SDS011;23099;42.636;23.198;2023-11-21T12:22:53;0.60;;;0.20;;
37205;SDS011;23099;42.636;23.198;2023-11-21T12:27:48;4.65;;;1.55;;
37205;SDS011;23099;42.636;23.198;2023-11-21T12:30:17;1.52;;;0.55;;
37205;SDS011;23099;42.636;23.198;2023-11-21T12:32:44;3.05;;;1.55;;
37205;SDS011;23099;42.636;23.198;2023-11-21T12:35:15;3.85;;;0.75;;
37205;SDS011;23099;42.636;23.198;2023-11-21T12:37:44;7.68;;;1.63;;
37205;SDS011;23099;42.636;23.198;2023-11-21T12:40:12;4.75;;;1.98;;
37205;SDS011;23099;42.636;23.198;2023-11-21T12:45:08;7.28;;;2.42;;
37205;SDS011;23099;42.636;23.198;2023-11-21T12:47:51;5.10;;;2.00;;
37205;SDS011;23099;42.636;23.198;2023-11-21T12:50:21;7.22;;;2.58;;
37205;SDS011;23099;42.636;23.198;2023-11-21T12:52:51;3.15;;;1.98;;
37205;SDS011;23099;42.636;23.198;2023-11-21T12:55:19;6.60;;;2.38;;
37205;SDS011;23099;42.636;23.198;2023-11-21T12:57:47;5.57;;;2.55;;
37205;SDS011;23099;42.636;23.198;2023-11-21T13:00:17;2.42;;;0.98;;
37205;SDS011;23099;42.636;23.198;2023-11-21T13:02:52;6.65;;;2.78;;
37205;SDS011;23099;42.636;23.198;2023-11-21T13:05:25;4.78;;;2.10;;
37205;SDS011;23099;42.636;23.198;2023-11-21T13:07:53;5.05;;;2.63;;
37205;SDS011;23099;42.636;23.198;2023-11-21T13:10:22;5.75;;;1.98;;
37205;SDS011;23099;42.636;23.198;2023-11-21T13:12:52;4.30;;;2.45;;
37205;SDS011;23099;42.636;23.198;2023-11-21T13:15:20;8.23;;;4.50;;
37205;SDS011;23099;42.636;23.198;2023-11-21T13:17:46;7.43;;;3.08;;
37205;SDS011;23099;42.636;23.198;2023-11-21T13:20:15;4.93;;;1.98;;
37205;SDS011;23099;42.636;23.198;2023-11-21T13:22:47;3.67;;;1.88;;
37205;SDS011;23099;42.636;23.198;2023-11-21T13:25:15;9.07;;;3.10;;
37205;SDS011;23099;42.636;23.198;2023-11-21T13:27:43;4.80;;;1.58;;
37205;SDS011;23099;42.636;23.198;2023-11-21T13:30:11;38.08;;;4.35;;
37205;SDS011;23099;42.636;23.198;2023-11-21T13:32:41;2.60;;;0.90;;
37205;SDS011;23099;42.636;23.198;2023-11-21T13:35:07;1.42;;;0.57;;
37205;SDS011;23099;42.636;23.198;2023-11-21T13:37:40;2.00;;;0.95;;
37205;SDS011;23099;42.636;23.198;2023-11-21T13:40:09;2.05;;;0.70;;
37205;SDS011;23099;42.636;23.198;2023-11-21T13:42:40;0.88;;;0.40;;
37205;SDS011;23099;42.636;23.198;2023-11-21T13:45:08;0.40;;;0.30;;
37205;SDS011;23099;42.636;23.198;2023-11-21T13:47:35;0.45;;;0.17;;
37205;SDS011;23099;42.636;23.198;2023-11-21T13:50:03;0.68;;;0.45;;
37205;SDS011;23099;42.636;23.198;2023-11-21T13:52:42;2.28;;;0.47;;
37205;SDS011;23099;42.636;23.198;2023-11-21T13:55:11;1.75;;;0.70;;
37205;SDS011;23099;42.636;23.198;2023-11-21T13:57:41;2.35;;;0.68;;
37205;SDS011;23099;42.636;23.198;2023-11-21T14:00:10;0.47;;;0.20;;
37205;SDS011;23099;42.636;23.198;2023-11-21T14:02:58;2.60;;;1.00;;
37205;SDS011;23099;42.636;23.198;2023-11-21T14:05:26;1.93;;;1.13;;
37205;SDS011;23099;42.636;23.198;2023-11-21T14:07:54;2.55;;;0.73;;
37205;SDS011;23099;42.636;23.198;2023-11-21T14:10:28;2.33;;;0.88;;
37205;SDS011;23099;42.636;23.198;2023-11-21T14:13:02;1.40;;;0.73;;
37205;SDS011;23099;42.636;23.198;2023-11-21T14:15:30;1.75;;;0.70;;
37205;SDS011;23099;42.636;23.198;2023-11-21T14:17:58;4.35;;;1.10;;
37205;SDS011;23099;42.636;23.198;2023-11-21T14:20:27;3.53;;;0.70;;
37205;SDS011;23099;42.636;23.198;2023-11-21T14:22:55;1.42;;;0.25;;
37205;SDS011;23099;42.636;23.198;2023-11-21T14:25:22;2.47;;;0.52;;
37205;SDS011;23099;42.636;23.198;2023-11-21T14:27:50;0.85;;;0.40;;
37205;SDS011;23099;42.636;23.198;2023-11-21T14:30:17;0.77;;;0.20;;
37205;SDS011;23099;42.636;23.198;2023-11-21T14:32:47;3.17;;;1.17;;
37205;SDS011;23099;42.636;23.198;2023-11-21T14:35:14;0.30;;;0.10;;
37205;SDS011;23099;42.636;23.198;2023-11-21T14:37:41;1.65;;;0.50;;
37205;SDS011;23099;42.636;23.198;2023-11-21T14:40:08;0.68;;;0.40;;
37205;SDS011;23099;42.636;23.198;2023-11-21T14:42:35;2.53;;;0.88;;
37205;SDS011;23099;42.636;23.198;2023-11-21T14:45:07;1.40;;;0.63;;
37205;SDS011;23099;42.636;23.198;2023-11-21T14:47:37;2.05;;;0.70;;
37205;SDS011;23099;42.636;23.198;2023-11-21T14:50:09;1.67;;;0.85;;
37205;SDS011;23099;42.636;23.198;2023-11-21T14:53:04;2.08;;;0.50;;
37205;SDS011;23099;42.636;23.198;2023-11-21T14:55:31;1.50;;;0.70;;
37205;SDS011;23099;42.636;23.198;2023-11-21T14:58:04;5.45;;;0.82;;